createdAt,value
2022-10-08T00:02:15.130Z,100610.03
2022-10-08T00:04:43.772Z,100596.66
2022-10-08T00:07:12.015Z,100601.12
2022-10-08T00:09:40.199Z,100595.91
2022-10-08T00:12:08.593Z,100587.88
2022-10-08T00:14:38.418Z,100599.44
2022-10-08T00:17:06.618Z,100600.28
2022-10-08T00:19:35.375Z,100593.97
2022-10-08T00:22:03.474Z,100597.38
2022-10-08T00:24:32.089Z,100592.00
2022-10-08T00:27:00.526Z,100594.69
2022-10-08T00:29:28.722Z,100594.81
2022-10-08T00:31:58.511Z,100599.34
2022-10-08T00:34:27.523Z,100591.53
2022-10-08T00:36:56.827Z,100596.03
2022-10-08T00:39:26.232Z,100599.13
2022-10-08T00:41:57.204Z,100597.66
2022-10-08T00:45:02.411Z,100594.53
2022-10-08T00:47:46.232Z,100603.78
2022-10-08T00:50:19.139Z,100592.47
2022-10-08T00:52:51.202Z,100589.22
2022-10-08T00:55:22.245Z,100587.50
2022-10-08T00:57:52.252Z,100590.19
2022-10-08T01:00:23.311Z,100586.75
2022-10-08T01:02:53.320Z,100587.03
2022-10-08T01:05:29.208Z,100583.91
2022-10-08T01:08:05.349Z,100587.16
2022-10-08T01:10:40.183Z,100590.97
2022-10-08T01:13:20.662Z,100577.56
2022-10-08T01:15:56.939Z,100573.91
2022-10-08T01:18:34.801Z,100584.12
2022-10-08T01:21:10.077Z,100571.38
2022-10-08T01:23:53.159Z,100566.72
2022-10-08T01:26:42.411Z,100569.28
2022-10-08T01:29:18.274Z,100561.97
2022-10-08T01:31:51.948Z,100565.63
2022-10-08T01:34:26.843Z,100561.38
2022-10-08T01:36:58.264Z,100557.97
2022-10-08T01:39:30.649Z,100567.84
2022-10-08T01:42:03.251Z,100563.34
2022-10-08T01:44:38.873Z,100554.91
2022-10-08T01:47:11.551Z,100562.94
2022-10-08T01:49:45.482Z,100565.87
2022-10-08T01:52:21.315Z,100558.81
2022-10-08T01:54:52.666Z,100553.59
2022-10-08T01:57:21.792Z,100553.69
2022-10-08T01:59:56.415Z,100555.41
2022-10-08T02:02:27.336Z,100556.50
2022-10-08T02:04:57.357Z,100548.34
2022-10-08T02:07:29.055Z,100544.69
2022-10-08T02:10:06.535Z,100543.34
2022-10-08T02:12:35.951Z,100547.59
2022-10-08T02:15:08.190Z,100539.81
2022-10-08T02:17:41.393Z,100537.63
2022-10-08T02:20:18.569Z,100535.94
2022-10-08T02:22:54.564Z,100532.28
2022-10-08T02:25:30.337Z,100534.88
2022-10-08T02:28:07.249Z,100539.47
2022-10-08T02:30:42.005Z,100538.75
2022-10-08T02:33:15.690Z,100534.25
2022-10-08T02:35:49.235Z,100534.25
2022-10-08T02:38:22.338Z,100530.72
2022-10-08T02:40:54.070Z,100533.62
2022-10-08T02:43:27.033Z,100529.38
2022-10-08T02:46:01.375Z,100535.59
2022-10-08T02:48:31.893Z,100528.41
2022-10-08T02:51:06.315Z,100534.47
2022-10-08T02:53:35.411Z,100538.75
2022-10-08T02:56:14.743Z,100530.72
2022-10-08T02:58:44.050Z,100538.50
2022-10-08T03:01:19.103Z,100542.75
2022-10-08T03:03:52.090Z,100535.09
2022-10-08T03:06:21.279Z,100539.69
2022-10-08T03:08:51.022Z,100537.53
2022-10-08T03:11:19.387Z,100535.44
2022-10-08T03:13:50.725Z,100537.84
2022-10-08T03:16:23.577Z,100543.84
2022-10-08T03:18:54.056Z,100547.38
2022-10-08T03:21:22.836Z,100550.03
2022-10-08T03:23:51.073Z,100549.94
2022-10-08T03:26:19.516Z,100554.56
2022-10-08T03:28:47.930Z,100547.62
2022-10-08T03:31:16.361Z,100548.63
2022-10-08T03:33:50.734Z,100539.59
2022-10-08T03:36:19.294Z,100546.53
2022-10-08T03:38:48.075Z,100545.94
2022-10-08T03:41:17.210Z,100552.13
2022-10-08T03:43:46.313Z,100549.31
2022-10-08T03:46:16.240Z,100550.31
2022-10-08T03:48:49.042Z,100554.69
2022-10-08T03:51:19.136Z,100553.84
2022-10-08T03:53:47.713Z,100555.91
2022-10-08T03:56:18.243Z,100551.75
2022-10-08T03:58:47.430Z,100553.00
2022-10-08T04:01:17.188Z,100558.59
2022-10-08T04:03:46.997Z,100558.84
2022-10-08T04:06:15.875Z,100553.75
2022-10-08T04:08:44.350Z,100555.84
2022-10-08T04:11:15.509Z,100562.37
2022-10-08T04:13:44.242Z,100558.28
2022-10-08T04:16:15.025Z,100557.69
2022-10-08T04:18:44.125Z,100555.50
2022-10-08T04:21:15.905Z,100548.72
2022-10-08T04:23:45.197Z,100551.63
2022-10-08T04:26:15.416Z,100562.69
2022-10-08T04:28:45.388Z,100557.69
2022-10-08T04:31:17.341Z,100560.38
2022-10-08T04:33:46.525Z,100553.59
2022-10-08T04:36:17.557Z,100560.88
2022-10-08T04:38:46.545Z,100561.00
2022-10-08T04:41:17.190Z,100553.84
2022-10-08T04:43:46.498Z,100570.09
2022-10-08T04:46:16.239Z,100569.03
2022-10-08T04:48:48.578Z,100555.75
2022-10-08T04:51:19.951Z,100561.09
2022-10-08T04:53:48.151Z,100564.66
2022-10-08T04:56:19.269Z,100565.72
2022-10-08T04:58:48.264Z,100564.88
2022-10-08T05:01:18.862Z,100572.06
2022-10-08T05:03:49.254Z,100567.69
2022-10-08T05:06:20.779Z,100562.22
2022-10-08T05:08:49.883Z,100561.34
2022-10-08T05:11:19.279Z,100565.00
2022-10-08T05:13:51.150Z,100570.75
2022-10-08T05:16:19.987Z,100571.81
2022-10-08T05:18:50.752Z,100569.97
2022-10-08T05:21:21.950Z,100565.47
2022-10-08T05:23:55.234Z,100572.56
2022-10-08T05:26:41.533Z,100575.44
2022-10-08T05:29:13.945Z,100574.84
2022-10-08T05:31:42.068Z,100588.34
2022-10-08T05:34:16.025Z,100586.03
2022-10-08T05:36:45.805Z,100593.44
2022-10-08T05:39:14.078Z,100599.75
2022-10-08T05:41:42.885Z,100600.34
2022-10-08T05:44:12.072Z,100601.22
2022-10-08T05:46:41.048Z,100601.09
2022-10-08T05:49:15.630Z,100610.72
2022-10-08T05:51:45.424Z,100608.25
2022-10-08T05:54:13.548Z,100617.25
2022-10-08T05:56:41.678Z,100616.53
2022-10-08T05:59:16.822Z,100611.56
2022-10-08T06:01:45.510Z,100622.50
2022-10-08T06:04:14.053Z,100617.50
2022-10-08T06:06:44.938Z,100614.59
2022-10-08T06:09:16.968Z,100613.50
2022-10-08T06:11:45.629Z,100622.63
2022-10-08T06:14:16.951Z,100622.97
2022-10-08T06:16:45.131Z,100628.59
2022-10-08T06:19:14.184Z,100633.56
2022-10-08T06:21:42.395Z,100631.13
2022-10-08T06:24:13.171Z,100628.22
2022-10-08T06:26:44.437Z,100635.50
2022-10-08T06:29:16.682Z,100634.28
2022-10-08T06:31:46.035Z,100636.00
2022-10-08T06:34:14.613Z,100631.84
2022-10-08T06:36:42.743Z,100630.13
2022-10-08T06:39:14.320Z,100634.28
2022-10-08T06:41:43.824Z,100635.25
2022-10-08T06:44:14.302Z,100641.34
2022-10-08T06:46:42.754Z,100648.00
2022-10-08T06:49:11.423Z,100655.19
2022-10-08T06:51:39.916Z,100660.06
2022-10-08T06:54:08.813Z,100658.72
2022-10-08T06:56:37.504Z,100654.59
2022-10-08T06:59:07.838Z,100661.16
2022-10-08T07:01:36.748Z,100664.19
2022-10-08T07:04:07.073Z,100665.50
2022-10-08T07:06:35.856Z,100664.50
2022-10-08T07:09:06.876Z,100665.59
2022-10-08T07:11:35.361Z,100665.09
2022-10-08T07:14:04.270Z,100662.66
2022-10-08T07:16:33.933Z,100667.25
2022-10-08T07:19:02.171Z,100663.19
2022-10-08T07:21:31.462Z,100676.78
2022-10-08T07:24:01.592Z,100664.91
2022-10-08T07:26:32.440Z,100661.31
2022-10-08T07:29:02.744Z,100660.84
2022-10-08T07:31:34.308Z,100668.22
2022-10-08T07:34:04.687Z,100662.94
2022-10-08T07:36:33.324Z,100667.94
2022-10-08T07:39:03.495Z,100668.31
2022-10-08T07:41:32.768Z,100667.09
2022-10-08T07:44:03.286Z,100667.44
2022-10-08T07:46:35.704Z,100668.69
2022-10-08T07:49:05.309Z,100667.31
2022-10-08T07:51:35.434Z,100676.84
2022-10-08T07:54:06.350Z,100670.63
2022-10-08T07:56:36.260Z,100673.34
2022-10-08T07:59:05.468Z,100679.31
2022-10-08T08:01:36.033Z,100675.81
2022-10-08T08:04:07.245Z,100669.62
2022-10-08T08:06:40.489Z,100677.69
2022-10-08T08:09:09.644Z,100669.47
2022-10-08T08:11:39.662Z,100675.19
2022-10-08T08:14:08.149Z,100675.59
2022-10-08T08:16:38.055Z,100677.59
2022-10-08T08:19:06.378Z,100677.00
2022-10-08T08:21:36.709Z,100676.66
2022-10-08T08:24:08.245Z,100682.72
2022-10-08T08:26:38.905Z,100683.31
2022-10-08T08:29:10.982Z,100677.19
2022-10-08T08:31:43.424Z,100680.66
2022-10-08T08:34:14.982Z,100684.87
2022-10-08T08:36:45.656Z,100682.56
2022-10-08T08:39:17.312Z,100685.75
2022-10-08T08:42:00.491Z,100687.59
2022-10-08T08:44:32.150Z,100686.97
2022-10-08T08:47:13.669Z,100687.75
2022-10-08T08:49:45.295Z,100681.16
2022-10-08T08:52:16.441Z,100684.56
2022-10-08T08:54:49.253Z,100684.87
2022-10-08T08:57:32.655Z,100702.34
2022-10-08T09:00:05.542Z,100704.78
2022-10-08T09:02:39.468Z,100709.47
2022-10-08T09:05:12.088Z,100717.06
2022-10-08T09:07:45.432Z,100723.22
2022-10-08T09:10:18.828Z,100725.72
2022-10-08T09:12:49.236Z,100713.84
2022-10-08T09:15:20.712Z,100712.41
2022-10-08T09:17:53.199Z,100720.34
2022-10-08T09:20:24.237Z,100721.03
2022-10-08T09:22:54.048Z,100718.31
2022-10-08T09:25:24.485Z,100732.16
2022-10-08T09:27:55.418Z,100736.19
2022-10-08T09:30:34.336Z,100734.38
2022-10-08T09:33:17.463Z,100724.31
2022-10-08T09:35:49.343Z,100730.91
2022-10-08T09:38:26.226Z,100737.50
2022-10-08T09:41:03.190Z,100745.63
2022-10-08T09:43:31.981Z,100749.25
2022-10-08T09:46:03.016Z,100758.94
2022-10-08T09:48:32.948Z,100758.16
2022-10-08T09:51:03.788Z,100763.06
2022-10-08T09:53:41.555Z,100755.69
2022-10-08T09:56:11.927Z,100745.28
2022-10-08T09:58:50.528Z,100758.22
2022-10-08T10:01:20.112Z,100757.34
2022-10-08T10:03:56.484Z,100758.19
2022-10-08T10:06:29.785Z,100765.16
2022-10-08T10:09:03.132Z,100759.41
2022-10-08T10:11:37.791Z,100771.09
2022-10-08T10:14:15.331Z,100772.84
2022-10-08T10:19:19.377Z,100774.38
2022-10-08T10:21:53.596Z,100776.50
2022-10-08T10:24:37.257Z,100780.16
2022-10-08T10:27:10.627Z,100767.97
2022-10-08T10:29:49.854Z,100771.56
2022-10-08T10:32:23.734Z,100772.31
2022-10-08T10:35:00.932Z,100780.16
2022-10-08T10:37:37.010Z,100782.72
2022-10-08T10:40:30.981Z,100775.50
2022-10-08T10:43:15.122Z,100774.53
2022-10-08T10:45:49.457Z,100772.16
2022-10-08T10:48:17.813Z,100769.31
2022-10-08T10:51:00.028Z,100771.31
2022-10-08T10:53:37.322Z,100775.16
2022-10-08T10:56:14.188Z,100776.16
2022-10-08T10:59:01.794Z,100786.56
2022-10-08T11:01:41.372Z,100774.91
2022-10-08T11:04:17.826Z,100786.25
2022-10-08T11:07:03.384Z,100790.22
2022-10-08T11:09:46.840Z,100783.56
2022-10-08T11:12:28.404Z,100778.50
2022-10-08T11:15:06.544Z,100780.94
2022-10-08T11:17:45.094Z,100772.31
2022-10-08T11:20:29.700Z,100778.50
2022-10-08T11:23:08.478Z,100782.59
2022-10-08T11:25:56.026Z,100785.19
2022-10-08T11:28:49.773Z,100780.38
2022-10-08T11:31:28.767Z,100786.88
2022-10-08T11:33:58.364Z,100781.06
2022-10-08T11:36:34.171Z,100779.91
2022-10-08T11:39:14.437Z,100775.38
2022-10-08T11:41:49.254Z,100785.22
2022-10-08T11:44:18.791Z,100790.97
2022-10-08T11:46:47.052Z,100787.88
2022-10-08T11:49:54.158Z,100792.03
2022-10-08T11:52:22.716Z,100788.31
2022-10-08T11:54:55.902Z,100793.13
2022-10-08T12:00:39.691Z,100790.38
2022-10-08T12:03:23.251Z,100796.00
2022-10-08T12:05:53.571Z,100797.00
2022-10-08T12:08:54.129Z,100795.88
2022-10-08T12:11:48.486Z,100805.41
2022-10-08T12:14:49.213Z,100807.25
2022-10-08T12:17:18.179Z,100801.97
2022-10-08T12:20:04.302Z,100793.31
2022-10-08T12:23:01.211Z,100797.75
2022-10-08T12:25:37.289Z,100803.69
2022-10-08T12:28:43.001Z,100789.37
2022-10-08T12:31:29.401Z,100797.75
2022-10-08T12:34:13.077Z,100798.12
2022-10-08T12:36:50.823Z,100796.97
2022-10-08T12:39:29.932Z,100806.75
2022-10-08T12:42:10.662Z,100801.09
2022-10-08T12:44:51.411Z,100800.22
2022-10-08T12:47:35.267Z,100810.59
2022-10-08T12:50:16.782Z,100804.84
2022-10-08T12:52:46.063Z,100803.19
2022-10-08T12:55:18.720Z,100800.16
2022-10-08T12:57:49.891Z,100801.66
2022-10-08T13:00:23.862Z,100810.59
2022-10-08T13:03:04.986Z,100810.94
2022-10-08T13:05:35.363Z,100803.13
2022-10-08T13:08:19.429Z,100802.41
2022-10-08T13:10:47.707Z,100810.37
2022-10-08T13:13:50.640Z,100811.59
2022-10-08T13:16:21.910Z,100806.63
2022-10-08T13:18:54.001Z,100807.19
2022-10-08T13:21:37.322Z,100811.00
2022-10-08T13:24:30.644Z,100813.19
2022-10-08T13:26:58.871Z,100816.63
2022-10-08T13:29:33.841Z,100820.88
2022-10-08T13:32:05.981Z,100814.03
2022-10-08T13:34:42.498Z,100820.97
2022-10-08T13:37:14.736Z,100822.81
2022-10-08T13:39:51.691Z,100820.34
2022-10-08T13:42:22.555Z,100815.50
2022-10-08T13:44:52.388Z,100812.97
2022-10-08T13:47:22.639Z,100808.00
2022-10-08T13:49:55.459Z,100807.88
2022-10-08T13:52:25.782Z,100807.34
2022-10-08T13:54:59.146Z,100806.84
2022-10-08T13:57:27.569Z,100803.91
2022-10-08T13:59:56.426Z,100809.16
2022-10-08T14:02:24.676Z,100822.38
2022-10-08T14:04:54.530Z,100810.22
2022-10-08T14:07:26.219Z,100813.16
2022-10-08T14:09:57.182Z,100811.53
2022-10-08T14:12:30.034Z,100810.78
2022-10-08T14:14:58.578Z,100817.41
2022-10-08T14:17:26.821Z,100819.13
2022-10-08T14:19:56.540Z,100824.03
2022-10-08T14:22:25.504Z,100817.28
2022-10-08T14:24:53.747Z,100818.50
2022-10-08T14:27:21.963Z,100814.94
2022-10-08T14:29:50.499Z,100828.47
2022-10-08T14:32:18.781Z,100825.34
2022-10-08T14:34:46.958Z,100833.44
2022-10-08T14:37:16.942Z,100821.47
2022-10-08T14:39:45.346Z,100823.00
2022-10-08T14:42:13.531Z,100824.16
2022-10-08T14:44:41.975Z,100836.50
2022-10-08T14:47:10.175Z,100828.47
2022-10-08T14:49:38.991Z,100837.75
2022-10-08T14:52:07.591Z,100827.47
2022-10-08T14:54:37.278Z,100832.16
2022-10-08T14:57:05.540Z,100831.16
2022-10-08T14:59:39.052Z,100828.41
2022-10-08T15:02:10.726Z,100842.28
2022-10-08T15:04:39.393Z,100839.50
2022-10-08T15:07:07.622Z,100839.75
2022-10-08T15:09:40.497Z,100839.97
2022-10-08T15:12:09.451Z,100838.44
2022-10-08T15:14:38.494Z,100838.78
2022-10-08T15:17:06.887Z,100850.44
2022-10-08T15:19:35.525Z,100843.50
2022-10-08T15:22:03.810Z,100848.31
2022-10-08T15:24:32.022Z,100847.91
2022-10-08T15:27:01.948Z,100850.31
2022-10-08T15:29:30.226Z,100865.09
2022-10-08T15:31:58.437Z,100862.66
2022-10-08T15:34:26.954Z,100872.44
2022-10-08T15:36:55.952Z,100867.34
2022-10-08T15:39:24.499Z,100871.72
2022-10-08T15:41:54.330Z,100878.66
2022-10-08T15:44:25.503Z,100877.22
2022-10-08T15:46:59.785Z,100877.69
2022-10-08T15:49:31.182Z,100892.81
2022-10-08T15:52:00.380Z,100895.47
2022-10-08T15:54:28.599Z,100907.50
2022-10-08T15:56:56.952Z,100927.69
2022-10-08T15:59:26.800Z,100930.91
2022-10-08T16:01:55.121Z,100939.25
2022-10-08T16:04:23.856Z,100943.13
2022-10-08T16:06:52.367Z,100932.34
2022-10-08T16:09:22.036Z,100935.63
2022-10-08T16:11:51.751Z,100946.34
2022-10-08T16:14:22.055Z,100946.47
2022-10-08T16:16:52.872Z,100950.88
2022-10-08T16:19:23.396Z,100965.00
2022-10-08T16:21:53.880Z,100964.16
2022-10-08T16:24:22.370Z,100972.53
2022-10-08T16:26:50.613Z,100972.53
2022-10-08T16:29:19.797Z,100975.41
2022-10-08T16:31:48.596Z,100975.28
2022-10-08T16:34:20.410Z,100986.75
2022-10-08T16:36:49.403Z,100985.13
2022-10-08T16:39:19.736Z,100989.84
2022-10-08T16:41:48.886Z,100994.28
2022-10-08T16:44:19.263Z,101000.38
2022-10-08T16:46:50.506Z,101005.12
2022-10-08T16:49:25.334Z,101014.06
2022-10-08T16:51:55.211Z,101017.00
2022-10-08T16:54:23.798Z,101014.59
2022-10-08T16:56:51.985Z,101014.72
2022-10-08T16:59:22.610Z,101023.00
2022-10-08T17:01:52.810Z,101019.00
2022-10-08T17:04:24.252Z,101025.84
2022-10-08T17:06:53.424Z,101025.34
2022-10-08T17:09:21.732Z,101037.81
2022-10-08T17:11:50.066Z,101036.81
2022-10-08T17:14:18.605Z,101045.00
2022-10-08T17:16:46.994Z,101054.13
2022-10-08T17:19:15.424Z,101053.91
2022-10-08T17:21:45.470Z,101066.56
2022-10-08T17:24:13.856Z,101068.28
2022-10-08T17:26:43.100Z,101073.75
2022-10-08T17:29:12.926Z,101083.25
2022-10-08T17:31:41.360Z,101085.72
2022-10-08T17:34:10.204Z,101086.44
2022-10-08T17:36:41.578Z,101093.09
2022-10-08T17:39:13.757Z,101093.34
2022-10-08T17:41:43.897Z,101093.81
2022-10-08T17:44:12.670Z,101101.25
2022-10-08T17:46:45.474Z,101099.03
2022-10-08T17:49:14.912Z,101106.56
2022-10-08T17:51:43.350Z,101112.63
2022-10-08T17:54:15.617Z,101115.66
2022-10-08T17:56:44.437Z,101112.19
2022-10-08T17:59:15.215Z,101124.25
2022-10-08T18:01:45.413Z,101118.50
2022-10-08T18:04:16.737Z,101120.38
2022-10-08T18:06:47.060Z,101132.16
2022-10-08T18:09:19.952Z,101131.19
2022-10-08T18:11:52.014Z,101132.37
2022-10-08T18:14:21.730Z,101141.19
2022-10-08T18:16:50.568Z,101144.28
2022-10-08T18:19:19.676Z,101152.06
2022-10-08T18:21:48.316Z,101153.44
2022-10-08T18:24:19.001Z,101162.13
2022-10-08T18:26:47.589Z,101171.56
2022-10-08T18:29:16.358Z,101175.44
2022-10-08T18:31:46.748Z,101176.59
2022-10-08T18:34:17.299Z,101172.44
2022-10-08T18:36:46.397Z,101173.41
2022-10-08T18:39:17.290Z,101174.78
2022-10-08T18:41:48.439Z,101181.53
2022-10-08T18:44:19.690Z,101180.16
2022-10-08T18:46:48.388Z,101192.22
2022-10-08T18:49:18.909Z,101196.94
2022-10-08T18:51:47.143Z,101205.59
2022-10-08T18:54:15.582Z,101207.91
2022-10-08T18:56:44.063Z,101215.28
2022-10-08T18:59:15.777Z,101216.97
2022-10-08T19:01:46.537Z,101218.81
2022-10-08T19:04:18.139Z,101221.88
2022-10-08T19:06:47.785Z,101224.75
2022-10-08T19:09:16.726Z,101233.00
2022-10-08T19:11:46.770Z,101230.84
2022-10-08T19:14:19.384Z,101228.44
2022-10-08T19:16:48.609Z,101236.69
2022-10-08T19:19:19.245Z,101239.75
2022-10-08T19:21:48.354Z,101239.19
2022-10-08T19:24:19.107Z,101247.44
2022-10-08T19:26:48.683Z,101248.47
2022-10-08T19:29:21.605Z,101248.66
2022-10-08T19:31:50.570Z,101250.78
2022-10-08T19:34:20.992Z,101254.72
2022-10-08T19:36:50.367Z,101262.06
2022-10-08T19:39:22.117Z,101263.97
2022-10-08T19:41:50.744Z,101262.44
2022-10-08T19:44:21.324Z,101266.28
2022-10-08T19:46:49.871Z,101261.44
2022-10-08T19:49:19.016Z,101262.66
2022-10-08T19:51:47.495Z,101264.69
2022-10-08T19:54:17.106Z,101270.22
2022-10-08T19:56:45.820Z,101272.09
2022-10-08T19:59:14.549Z,101274.22
2022-10-08T20:01:44.769Z,101279.75
2022-10-08T20:04:14.062Z,101292.47
2022-10-08T20:06:43.637Z,101285.63
2022-10-08T20:09:13.526Z,101300.09
2022-10-08T20:11:43.332Z,101300.28
2022-10-08T20:14:12.432Z,101301.44
2022-10-08T20:16:42.542Z,101301.91
2022-10-08T20:19:17.609Z,101306.75
2022-10-08T20:21:46.222Z,101306.09
2022-10-08T20:24:15.181Z,101316.00
2022-10-08T20:26:44.939Z,101314.34
2022-10-08T20:29:15.225Z,101318.69
2022-10-08T20:31:46.212Z,101321.87
2022-10-08T20:34:18.538Z,101316.44
2022-10-08T20:36:47.846Z,101320.91
2022-10-08T20:39:21.094Z,101327.31
2022-10-08T20:41:50.180Z,101330.12
2022-10-08T20:44:18.540Z,101331.28
2022-10-08T20:46:47.129Z,101331.47
2022-10-08T20:49:17.031Z,101327.16
2022-10-08T20:51:45.554Z,101333.62
2022-10-08T20:54:16.011Z,101333.81
2022-10-08T20:56:44.986Z,101345.69
2022-10-08T20:59:16.661Z,101336.16
2022-10-08T21:01:46.285Z,101346.97
2022-10-08T21:04:14.806Z,101352.47
2022-10-08T21:06:46.913Z,101356.44
2022-10-08T21:09:17.546Z,101360.34
2022-10-08T21:11:47.061Z,101354.38
2022-10-08T21:14:18.123Z,101362.47
2022-10-08T21:16:46.899Z,101362.66
2022-10-08T21:19:16.696Z,101364.63
2022-10-08T21:21:46.797Z,101361.47
2022-10-08T21:24:16.927Z,101377.62
2022-10-08T21:26:45.306Z,101373.19
2022-10-08T21:29:15.393Z,101370.59
2022-10-08T21:31:44.246Z,101375.06
2022-10-08T21:34:13.771Z,101373.44
2022-10-08T21:36:42.776Z,101375.34
2022-10-08T21:39:16.651Z,101376.34
2022-10-08T21:41:45.181Z,101384.34
2022-10-08T21:44:13.683Z,101380.03
2022-10-08T21:46:43.381Z,101381.84
2022-10-08T21:49:14.340Z,101383.56
2022-10-08T21:51:42.821Z,101385.47
2022-10-08T21:54:13.867Z,101388.97
2022-10-08T21:56:42.918Z,101390.03
2022-10-08T21:59:14.007Z,101394.56
2022-10-08T22:01:44.052Z,101400.84
2022-10-08T22:04:15.468Z,101398.31
2022-10-08T22:06:46.012Z,101404.69
2022-10-08T22:09:18.438Z,101404.88
2022-10-08T22:11:46.985Z,101391.78
2022-10-08T22:14:16.023Z,101398.81
2022-10-08T22:16:44.386Z,101405.25
2022-10-08T22:19:13.141Z,101397.69
2022-10-08T22:21:41.939Z,101393.31
2022-10-08T22:24:10.313Z,101403.19
2022-10-08T22:26:41.823Z,101399.81
2022-10-08T22:29:11.195Z,101403.41
2022-10-08T22:31:39.929Z,101399.97
2022-10-08T22:34:08.425Z,101403.59
2022-10-08T22:36:39.870Z,101405.38
2022-10-08T22:39:08.952Z,101405.28
2022-10-08T22:41:39.258Z,101403.59
2022-10-08T22:44:07.718Z,101401.88
2022-10-08T22:46:38.462Z,101409.00
2022-10-08T22:49:09.229Z,101409.06
2022-10-08T22:51:38.344Z,101412.78
2022-10-08T22:54:07.434Z,101419.09
2022-10-08T22:56:35.800Z,101414.03
2022-10-08T22:59:05.501Z,101418.62
2022-10-08T23:01:34.017Z,101415.34
2022-10-08T23:04:02.312Z,101411.16
2022-10-08T23:06:33.015Z,101407.59
2022-10-08T23:09:03.336Z,101413.09
2022-10-08T23:11:32.746Z,101414.19
2022-10-08T23:14:01.737Z,101417.88
2022-10-08T23:16:34.019Z,101417.25
2022-10-08T23:19:05.051Z,101425.38
2022-10-08T23:21:34.132Z,101414.03
2022-10-08T23:24:03.126Z,101421.22
2022-10-08T23:26:31.764Z,101422.34
2022-10-08T23:29:01.760Z,101425.97
2022-10-08T23:31:33.272Z,101422.53
2022-10-08T23:34:02.422Z,101427.94
2022-10-08T23:36:32.883Z,101425.38
2022-10-08T23:39:01.519Z,101428.19
2022-10-08T23:41:30.134Z,101427.34
2022-10-08T23:43:58.926Z,101427.34
2022-10-08T23:46:29.065Z,101433.59
2022-10-08T23:49:00.294Z,101423.00
2022-10-08T23:51:31.592Z,101427.47
2022-10-08T23:54:01.103Z,101430.97
2022-10-08T23:56:29.762Z,101430.19
2022-10-08T23:58:58.344Z,101431.09
